Time;durP1;ratioP1;P1;durP2;ratioP2;P2;SDS_P1;SDS_P2;PMS_P1;PMS_P2;Temp;Humidity;BMP_temperature;BMP_pressure;BME280_temperature;BME280_humidity;BME280_pressure;Samples;Min_cycle;Max_cycle;Signal;HPM_P1;HPM_P2
2022/03/10 00:00:39;;;;;;;284.73;140.10;;;2.90;1.00;;;;;;5015019;28;20358;-77
2022/03/10 00:03:06;;;;;;;331.70;162.18;;;2.80;1.00;;;;;;5015691;28;20049;-76
2022/03/10 00:05:34;;;;;;;255.52;131.60;;;2.80;1.00;;;;;;5014792;28;20046;-76
2022/03/10 00:08:02;;;;;;;250.52;129.70;;;2.90;1.00;;;;;;5014291;28;20092;-77
2022/03/10 00:10:31;;;;;;;253.85;128.93;;;2.80;11.90;;;;;;5014564;28;20054;-75
2022/03/10 00:12:58;;;;;;;241.23;127.13;;;2.80;1.00;;;;;;5014100;28;20077;-76
2022/03/10 00:15:26;;;;;;;241.07;125.95;;;2.80;1.00;;;;;;5014139;28;20042;-77
2022/03/10 00:17:54;;;;;;;249.45;131.23;;;2.90;1.00;;;;;;5016829;28;20050;-77
2022/03/10 00:20:22;;;;;;;243.35;128.70;;;2.90;1.00;;;;;;5034154;28;20564;-77
2022/03/10 00:22:51;;;;;;;233.23;125.80;;;2.90;1.00;;;;;;5036673;28;20084;-77
2022/03/10 00:25:20;;;;;;;232.05;123.10;;;2.90;1.00;;;;;;5052977;28;20044;-77
2022/03/10 00:27:49;;;;;;;232.43;122.93;;;2.90;1.00;;;;;;5036411;28;20480;-76
2022/03/10 00:30:17;;;;;;;229.35;123.18;;;2.90;1.00;;;;;;5035840;28;20095;-76
2022/03/10 00:32:46;;;;;;;222.25;119.43;;;2.90;1.00;;;;;;5053670;28;20041;-77
2022/03/10 00:35:18;;;;;;;227.90;122.20;;;2.90;1.00;;;;;;5036754;28;20053;-77
2022/03/10 00:37:46;;;;;;;228.65;122.65;;;2.90;1.00;;;;;;5056944;28;20115;-76
2022/03/10 00:40:14;;;;;;;193.50;101.88;;;3.00;1.00;;;;;;5040035;28;20131;-77
2022/03/10 00:42:43;;;;;;;237.95;126.30;;;2.90;1.00;;;;;;5035572;28;20045;-77
2022/03/10 00:45:13;;;;;;;248.82;133.80;;;2.80;1.00;;;;;;5035826;28;20144;-77
2022/03/10 00:47:41;;;;;;;235.10;122.00;;;2.90;1.00;;;;;;5037340;28;20034;-77
2022/03/10 00:50:11;;;;;;;237.88;125.90;;;2.80;1.00;;;;;;5033855;28;20072;-77
2022/03/10 00:52:42;;;;;;;228.18;122.45;;;2.80;1.00;;;;;;5033716;28;20072;-75
2022/03/10 00:55:11;;;;;;;235.15;124.78;;;2.90;1.00;;;;;;5033607;28;20069;-76
2022/03/10 00:57:39;;;;;;;187.07;101.40;;;2.80;1.00;;;;;;5035235;28;20053;-76
2022/03/10 01:00:08;;;;;;;176.23;96.07;;;2.80;1.00;;;;;;5020716;28;20069;-75
2022/03/10 01:02:37;;;;;;;183.35;97.70;;;2.90;1.00;;;;;;5039626;28;20107;-76
2022/03/10 01:05:06;;;;;;;202.52;106.50;;;2.90;1.00;;;;;;5039990;28;20054;-76
2022/03/10 01:07:35;;;;;;;181.85;97.70;;;2.90;1.00;;;;;;5038732;28;20125;-76
2022/03/10 01:10:03;;;;;;;188.32;99.65;;;2.80;1.00;;;;;;5019880;28;20484;-76
2022/03/10 01:12:32;;;;;;;180.18;99.95;;;2.80;1.00;;;;;;5037074;28;20059;-76
2022/03/10 01:15:00;;;;;;;184.73;101.28;;;2.80;1.00;;;;;;5021924;28;20042;-76
2022/03/10 01:17:27;;;;;;;147.13;80.63;;;2.90;1.00;;;;;;5037625;28;20057;-76
2022/03/10 01:19:56;;;;;;;162.75;89.82;;;2.90;1.00;;;;;;5039469;28;20069;-75
2022/03/10 01:22:24;;;;;;;166.10;90.50;;;2.90;1.00;;;;;;5057018;28;20055;-74
2022/03/10 01:24:51;;;;;;;152.00;82.38;;;2.90;1.00;;;;;;5055313;28;20091;-75
2022/03/10 01:27:19;;;;;;;163.40;87.65;;;2.90;1.00;;;;;;5036503;28;20052;-77
2022/03/10 01:29:46;;;;;;;156.02;87.03;;;2.90;1.00;;;;;;5019119;28;20049;-77
2022/03/10 01:32:14;;;;;;;156.40;89.88;;;2.90;1.00;;;;;;5019494;28;20037;-77
2022/03/10 01:34:42;;;;;;;166.13;88.32;;;2.90;1.00;;;;;;5034058;28;20132;-76
2022/03/10 01:37:11;;;;;;;173.77;95.80;;;2.90;1.00;;;;;;5037940;28;20051;-76
2022/03/10 01:39:38;;;;;;;179.23;100.82;;;2.90;1.00;;;;;;5030532;28;20060;-76
2022/03/10 01:42:06;;;;;;;207.13;111.95;;;2.90;1.00;;;;;;5039755;28;20084;-76
2022/03/10 01:44:34;;;;;;;196.50;108.20;;;3.00;1.00;;;;;;5030195;28;20049;-77
2022/03/10 01:47:02;;;;;;;213.80;116.90;;;2.90;1.00;;;;;;5038071;28;20170;-75
2022/03/10 01:49:30;;;;;;;218.15;115.40;;;2.90;1.00;;;;;;5037886;28;20083;-76
2022/03/10 01:51:58;;;;;;;228.20;125.10;;;2.80;1.00;;;;;;5055981;28;20071;-76
2022/03/10 01:54:27;;;;;;;207.43;116.40;;;2.80;1.00;;;;;;5055825;28;20045;-77
2022/03/10 01:56:55;;;;;;;210.25;114.50;;;2.80;1.00;;;;;;5038726;28;20037;-76
2022/03/10 01:59:23;;;;;;;183.50;102.35;;;2.70;43.20;;;;;;5037772;28;20055;-76
2022/03/10 02:01:50;;;;;;;178.05;103.15;;;2.70;81.00;;;;;;5037882;28;20081;-77
2022/03/10 02:04:18;;;;;;;165.85;93.40;;;2.70;99.90;;;;;;5055040;28;20123;-77
2022/03/10 02:06:46;;;;;;;167.95;95.82;;;2.70;99.90;;;;;;5055771;28;20033;-76
2022/03/10 02:12:00;;;;;;;164.65;92.78;;;2.70;99.90;;;;;;5036522;28;20077;-76
2022/03/10 02:17:21;;;;;;;157.43;90.30;;;2.70;99.90;;;;;;5037554;28;20087;-76
2022/03/10 02:19:50;;;;;;;167.85;89.55;;;2.70;99.90;;;;;;5037307;28;20045;-76
2022/03/10 02:22:21;;;;;;;171.25;94.93;;;2.70;99.90;;;;;;5037510;28;20045;-77
2022/03/10 02:24:49;;;;;;;169.95;95.38;;;2.70;99.90;;;;;;5033419;28;20053;-77
2022/03/10 02:27:18;;;;;;;164.35;92.38;;;2.70;99.90;;;;;;5014272;28;20041;-77
2022/03/10 02:29:46;;;;;;;155.88;90.43;;;2.70;99.90;;;;;;5014100;28;20058;-76
2022/03/10 02:32:15;;;;;;;181.80;98.57;;;2.70;99.90;;;;;;5015350;28;20038;-77
2022/03/10 02:34:43;;;;;;;180.88;101.78;;;2.70;99.90;;;;;;5027190;28;20033;-76
2022/03/10 02:37:11;;;;;;;182.20;102.18;;;2.70;99.90;;;;;;5040030;28;20045;-77
2022/03/10 02:39:42;;;;;;;186.93;103.93;;;2.60;99.90;;;;;;5042136;28;20175;-77
2022/03/10 02:42:10;;;;;;;181.23;103.80;;;2.60;99.90;;;;;;5040840;28;20121;-77
2022/03/10 02:44:41;;;;;;;180.32;104.63;;;2.60;99.90;;;;;;5038465;28;20050;-76
2022/03/10 02:47:08;;;;;;;180.30;103.10;;;2.70;99.90;;;;;;5034981;28;20048;-77
2022/03/10 02:49:36;;;;;;;177.82;101.00;;;2.70;99.90;;;;;;5023787;28;20054;-77
2022/03/10 02:52:04;;;;;;;184.93;103.43;;;2.80;99.90;;;;;;5014596;28;20053;-76
2022/03/10 02:54:32;;;;;;;189.05;106.45;;;2.80;99.90;;;;;;5014607;28;20119;-77
2022/03/10 02:57:01;;;;;;;190.93;109.28;;;2.80;99.90;;;;;;5014985;28;20048;-76
2022/03/10 02:59:29;;;;;;;179.40;103.63;;;2.80;99.90;;;;;;5014790;28;20077;-77
2022/03/10 03:01:58;;;;;;;193.13;107.18;;;2.80;99.90;;;;;;5015810;28;20041;-76
2022/03/10 03:04:25;;;;;;;173.20;100.00;;;2.80;99.90;;;;;;5032950;28;20505;-76
2022/03/10 03:06:53;;;;;;;181.27;99.82;;;2.80;99.90;;;;;;5035624;28;20049;-76
2022/03/10 03:09:21;;;;;;;171.10;98.63;;;2.90;99.90;;;;;;5033945;28;20071;-77
2022/03/10 03:11:49;;;;;;;173.18;99.35;;;2.80;66.30;;;;;;5032756;28;20060;-77
2022/03/10 03:14:17;;;;;;;167.23;97.18;;;2.80;52.00;;;;;;5033238;28;20073;-77
2022/03/10 03:16:46;;;;;;;152.73;91.30;;;2.90;53.00;;;;;;5033093;28;20096;-76
2022/03/10 03:19:14;;;;;;;154.50;88.20;;;2.90;61.00;;;;;;5033916;28;20055;-76
2022/03/10 03:21:42;;;;;;;167.30;93.93;;;3.00;55.80;;;;;;5034018;28;20128;-77
2022/03/10 03:24:09;;;;;;;181.07;104.40;;;3.00;14.90;;;;;;5032509;28;20077;-76
2022/03/10 03:26:37;;;;;;;154.95;89.55;;;3.10;1.00;;;;;;5051053;28;20045;-77
2022/03/10 03:29:05;;;;;;;144.75;80.47;;;3.10;1.00;;;;;;5037355;28;20045;-76
2022/03/10 03:31:34;;;;;;;130.20;77.43;;;3.10;1.00;;;;;;5037340;28;20052;-77
2022/03/10 03:34:02;;;;;;;139.02;82.07;;;3.00;1.00;;;;;;5056058;28;20049;-76
2022/03/10 03:36:30;;;;;;;132.40;79.93;;;3.00;1.00;;;;;;5037472;28;20500;-77
2022/03/10 03:38:57;;;;;;;136.38;81.00;;;2.90;1.00;;;;;;5056044;28;20510;-76
2022/03/10 03:41:25;;;;;;;139.63;82.03;;;2.80;1.00;;;;;;5054588;28;20119;-76
2022/03/10 03:43:53;;;;;;;151.85;86.00;;;2.90;50.70;;;;;;5036301;28;20489;-76
2022/03/10 03:46:20;;;;;;;166.95;95.68;;;2.90;1.90;;;;;;5055801;28;20555;-76
2022/03/10 03:48:49;;;;;;;174.82;99.22;;;2.70;53.50;;;;;;5033234;28;20462;-77
2022/03/10 03:51:16;;;;;;;172.65;96.90;;;2.70;99.90;;;;;;5035869;28;20072;-76
2022/03/10 03:53:44;;;;;;;169.23;97.18;;;2.70;99.90;;;;;;5019745;28;20136;-76
2022/03/10 03:56:11;;;;;;;164.35;95.32;;;2.60;99.90;;;;;;5017660;28;20049;-76
2022/03/10 03:58:39;;;;;;;167.43;95.80;;;2.60;99.90;;;;;;5034039;28;20502;-76
2022/03/10 04:01:06;;;;;;;160.93;93.90;;;2.70;99.90;;;;;;5034494;28;20099;-77
2022/03/10 04:03:34;;;;;;;154.50;91.07;;;2.70;99.90;;;;;;5034911;28;20689;-76
2022/03/10 04:06:04;;;;;;;145.57;84.10;;;2.70;99.90;;;;;;5016008;28;20107;-75
2022/03/10 04:08:31;;;;;;;133.10;76.88;;;2.80;99.90;;;;;;5016361;28;20061;-77
2022/03/10 04:10:59;;;;;;;131.35;78.15;;;2.80;99.90;;;;;;5020281;28;20074;-76
2022/03/10 04:13:27;;;;;;;154.10;89.60;;;2.80;99.90;;;;;;5020292;28;20058;-77
2022/03/10 04:15:55;;;;;;;139.00;81.07;;;2.80;99.90;;;;;;5037980;28;20045;-76
2022/03/10 04:18:22;;;;;;;147.43;86.10;;;2.90;99.90;;;;;;5020717;28;20045;-76
2022/03/10 04:20:50;;;;;;;156.93;90.40;;;2.90;99.90;;;;;;5038268;28;20050;-75
2022/03/10 04:23:19;;;;;;;156.73;92.75;;;2.80;99.90;;;;;;5033996;28;20054;-76
2022/03/10 04:25:46;;;;;;;168.90;98.60;;;2.90;99.90;;;;;;5041395;28;20037;-77
2022/03/10 04:28:14;;;;;;;178.20;102.22;;;2.90;99.90;;;;;;5053707;28;20049;-76
2022/03/10 04:30:43;;;;;;;178.38;99.75;;;2.80;99.90;;;;;;5053712;28;20048;-77
2022/03/10 04:33:10;;;;;;;186.05;106.00;;;2.70;99.90;;;;;;5035986;28;20095;-75
2022/03/10 04:35:38;;;;;;;175.60;99.28;;;2.70;99.90;;;;;;5019151;28;20069;-76
2022/03/10 04:38:07;;;;;;;174.57;100.53;;;2.70;99.90;;;;;;5019674;28;20400;-76
2022/03/10 04:40:37;;;;;;;179.52;99.75;;;2.70;99.90;;;;;;5019596;28;20049;-75
2022/03/10 04:43:04;;;;;;;172.93;98.15;;;2.70;99.90;;;;;;5019437;28;20065;-77
2022/03/10 04:45:32;;;;;;;169.80;99.65;;;2.80;99.90;;;;;;5036975;28;20396;-76
2022/03/10 04:48:00;;;;;;;163.32;95.18;;;2.80;99.90;;;;;;5053108;28;20508;-77
2022/03/10 04:50:28;;;;;;;169.70;98.22;;;2.90;99.90;;;;;;5057155;28;20041;-75
2022/03/10 04:52:55;;;;;;;169.35;100.57;;;3.00;99.90;;;;;;5056909;28;20500;-76
2022/03/10 04:55:23;;;;;;;174.70;101.18;;;3.00;99.90;;;;;;5039235;28;20099;-76
2022/03/10 04:57:52;;;;;;;173.82;102.22;;;3.00;99.90;;;;;;5057775;28;20048;-77
2022/03/10 05:00:19;;;;;;;190.60;111.25;;;3.00;99.90;;;;;;5040615;28;20049;-77
2022/03/10 05:02:48;;;;;;;200.57;113.07;;;3.10;78.80;;;;;;5040346;28;20046;-76
2022/03/10 05:05:17;;;;;;;214.65;122.38;;;3.10;47.50;;;;;;5021546;28;20053;-75
2022/03/10 05:07:45;;;;;;;228.55;127.50;;;3.10;62.20;;;;;;5021953;28;20159;-76
2022/03/10 05:10:15;;;;;;;228.73;129.38;;;3.10;91.60;;;;;;5022942;28;20058;-76
2022/03/10 05:12:52;;;;;;;228.35;125.78;;;3.20;10.40;;;;;;5019288;28;20471;-77
2022/03/10 05:15:20;;;;;;;222.43;124.30;;;3.30;1.00;;;;;;5031528;28;20143;-76
2022/03/10 05:17:48;;;;;;;237.15;129.52;;;3.40;1.00;;;;;;5038288;28;20037;-77
2022/03/10 05:20:16;;;;;;;127.40;75.15;;;3.50;1.00;;;;;;5038464;28;20053;-76
2022/03/10 05:22:45;;;;;;;82.38;48.97;;;3.50;1.00;;;;;;5038134;28;20045;-77
2022/03/10 05:25:14;;;;;;;58.08;35.05;;;3.60;1.00;;;;;;5060412;22;20041;-77
2022/03/10 05:27:42;;;;;;;40.90;26.05;;;3.80;1.00;;;;;;5051780;28;20033;-76
2022/03/10 05:30:12;;;;;;;37.45;22.98;;;3.90;1.00;;;;;;5035731;28;20062;-76
2022/03/10 05:32:40;;;;;;;33.45;22.40;;;3.90;1.00;;;;;;5065408;28;20132;-77
2022/03/10 05:35:10;;;;;;;35.20;23.55;;;3.90;1.00;;;;;;5059861;28;20448;-77
2022/03/10 05:37:38;;;;;;;33.60;22.42;;;3.90;1.00;;;;;;5040195;28;20090;-76
2022/03/10 05:40:07;;;;;;;35.92;22.23;;;3.80;1.00;;;;;;5061499;28;20381;-76
2022/03/10 05:42:37;;;;;;;35.70;23.80;;;3.80;1.00;;;;;;5020474;28;20050;-78
2022/03/10 05:45:06;;;;;;;38.47;25.08;;;3.70;1.00;;;;;;5020157;28;20068;-77
2022/03/10 05:47:35;;;;;;;36.22;23.48;;;3.80;79.50;;;;;;5021519;28;20068;-77
2022/03/10 05:50:03;;;;;;;36.70;25.35;;;3.60;99.90;;;;;;5035689;28;20075;-76
2022/03/10 05:52:30;;;;;;;32.03;22.90;;;3.60;99.90;;;;;;5037822;28;20047;-76
2022/03/10 05:54:58;;;;;;;34.13;23.08;;;3.70;99.90;;;;;;5037475;28;20049;-76
2022/03/10 05:57:26;;;;;;;36.00;23.45;;;3.60;99.90;;;;;;5035394;28;20045;-77
2022/03/10 05:59:56;;;;;;;37.13;23.52;;;3.70;1.00;;;;;;5022627;28;20057;-76
2022/03/10 06:02:24;;;;;;;28.98;20.80;;;3.70;1.00;;;;;;5039201;28;20103;-77
2022/03/10 06:04:53;;;;;;;33.72;21.88;;;3.70;1.00;;;;;;5035033;28;20061;-77
2022/03/10 06:07:21;;;;;;;35.53;25.10;;;3.70;1.00;;;;;;5038173;28;20112;-76
2022/03/10 06:09:49;;;;;;;34.20;22.02;;;3.70;1.00;;;;;;5010907;28;20084;-76
2022/03/10 06:12:21;;;;;;;34.72;23.80;;;3.70;1.00;;;;;;5015998;28;20404;-76
2022/03/10 06:14:49;;;;;;;35.15;23.05;;;3.80;1.00;;;;;;5000315;28;20054;-76
2022/03/10 06:17:17;;;;;;;68.05;37.53;;;3.80;1.00;;;;;;5017754;28;20494;-77
2022/03/10 06:19:45;;;;;;;66.15;39.13;;;3.80;1.00;;;;;;5035726;28;20113;-77
2022/03/10 06:22:17;;;;;;;30.20;19.60;;;3.80;1.00;;;;;;5008361;28;20049;-77
2022/03/10 06:24:46;;;;;;;28.35;19.08;;;3.70;1.00;;;;;;5015906;28;20058;-77
2022/03/10 06:27:13;;;;;;;25.83;18.40;;;3.70;1.00;;;;;;5016196;28;20049;-77
2022/03/10 06:29:41;;;;;;;26.33;18.90;;;3.80;1.00;;;;;;4999742;28;20527;-77
2022/03/10 06:32:09;;;;;;;27.00;18.90;;;3.70;90.50;;;;;;5026984;28;20046;-77
2022/03/10 06:34:39;;;;;;;31.73;18.10;;;3.80;99.90;;;;;;5015739;28;20046;-76
2022/03/10 06:37:07;;;;;;;21.73;14.65;;;4.00;1.00;;;;;;5027917;28;20125;-77
2022/03/10 06:39:37;;;;;;;23.70;16.80;;;3.90;1.00;;;;;;5017106;28;20080;-76
2022/03/10 06:42:05;;;;;;;25.83;17.80;;;3.90;1.00;;;;;;5019494;28;20070;-76
2022/03/10 06:44:36;;;;;;;29.77;19.45;;;3.90;1.00;;;;;;5016861;28;20052;-77
2022/03/10 06:47:05;;;;;;;32.63;21.70;;;3.90;1.00;;;;;;5031351;28;20492;-77
2022/03/10 06:49:33;;;;;;;34.05;21.90;;;4.00;1.00;;;;;;5017094;28;20041;-76
2022/03/10 06:52:01;;;;;;;35.75;23.83;;;4.10;1.00;;;;;;5044201;28;20045;-75
2022/03/10 06:54:28;;;;;;;43.92;28.55;;;4.20;1.00;;;;;;5037702;28;20037;-76
2022/03/10 06:56:58;;;;;;;44.08;27.65;;;4.10;99.90;;;;;;5046342;28;20072;-76
2022/03/10 06:59:25;;;;;;;42.88;28.75;;;3.80;99.90;;;;;;5026659;28;20099;-77
2022/03/10 07:01:53;;;;;;;36.10;23.42;;;3.80;99.90;;;;;;5036340;28;20069;-77
2022/03/10 07:04:20;;;;;;;33.00;20.67;;;3.80;99.90;;;;;;5035907;28;20052;-76
2022/03/10 07:06:48;;;;;;;32.85;20.52;;;3.80;99.90;;;;;;5030121;28;20111;-77
2022/03/10 07:09:20;;;;;;;32.63;19.92;;;3.80;99.90;;;;;;5029133;28;20643;-77
2022/03/10 07:11:48;;;;;;;35.92;22.58;;;3.90;99.90;;;;;;5047231;28;20053;-76
2022/03/10 07:14:17;;;;;;;31.25;18.17;;;4.10;99.90;;;;;;5030539;28;20048;-77
2022/03/10 07:16:46;;;;;;;39.72;22.45;;;4.00;99.90;;;;;;5049458;28;20048;-77
2022/03/10 07:19:13;;;;;;;31.63;19.02;;;4.00;99.90;;;;;;5051724;28;20033;-76
2022/03/10 07:21:41;;;;;;;28.60;16.35;;;4.10;99.90;;;;;;5044804;28;20036;-76
2022/03/10 07:24:09;;;;;;;21.80;13.73;;;4.20;99.90;;;;;;5039364;28;20057;-75
2022/03/10 07:26:38;;;;;;;22.80;14.38;;;4.10;99.90;;;;;;5036370;28;20045;-77
2022/03/10 07:29:05;;;;;;;22.40;13.80;;;3.90;99.90;;;;;;5027697;28;20136;-76
2022/03/10 07:31:35;;;;;;;27.90;15.88;;;3.80;99.90;;;;;;5026392;28;20037;-76
2022/03/10 07:34:03;;;;;;;28.13;16.45;;;3.50;99.90;;;;;;5000239;28;20133;-77
2022/03/10 07:36:30;;;;;;;24.08;14.85;;;3.40;1.00;;;;;;4998707;28;20509;-76
2022/03/10 07:38:58;;;;;;;30.02;18.38;;;3.30;1.00;;;;;;5019407;28;20054;-77
2022/03/10 07:41:25;;;;;;;27.13;17.10;;;3.20;99.90;;;;;;5020697;28;20057;-77
2022/03/10 07:43:53;;;;;;;36.72;20.80;;;2.90;1.00;;;;;;5014513;28;20544;-78
2022/03/10 07:46:22;;;;;;;39.20;25.20;;;2.80;99.90;;;;;;5008941;28;20130;-77
2022/03/10 07:48:52;;;;;;;34.60;21.40;;;2.90;84.10;;;;;;5004064;28;20081;-77
2022/03/10 07:51:19;;;;;;;23.98;17.40;;;3.00;99.90;;;;;;4997416;28;20046;-77
2022/03/10 07:53:47;;;;;;;24.20;15.73;;;3.00;1.00;;;;;;5017819;28;20438;-77
2022/03/10 07:56:15;;;;;;;22.85;14.32;;;3.10;1.00;;;;;;5016252;28;20417;-77
2022/03/10 07:58:42;;;;;;;24.80;15.95;;;3.10;1.00;;;;;;5014777;28;20038;-76
2022/03/10 08:01:10;;;;;;;20.52;12.63;;;3.10;99.90;;;;;;5004725;28;20497;-77
2022/03/10 08:03:38;;;;;;;24.38;13.60;;;2.80;79.10;;;;;;4995231;28;20054;-77
2022/03/10 08:06:07;;;;;;;20.45;13.27;;;2.70;99.90;;;;;;5009957;28;20390;-78
2022/03/10 08:08:35;;;;;;;22.90;14.02;;;2.80;99.90;;;;;;4996914;28;20421;-76
2022/03/10 08:11:03;;;;;;;20.63;13.10;;;3.00;99.90;;;;;;5001590;28;20066;-77
2022/03/10 08:13:31;;;;;;;22.15;13.73;;;3.10;51.50;;;;;;5016809;28;20058;-77
2022/03/10 08:15:59;;;;;;;17.70;10.95;;;3.20;1.00;;;;;;5017762;28;20050;-76
2022/03/10 08:18:26;;;;;;;15.35;10.30;;;3.20;1.00;;;;;;5011733;28;20060;-77
2022/03/10 08:20:58;;;;;;;18.33;11.32;;;3.10;1.00;;;;;;5023385;28;20046;-77
2022/03/10 08:23:27;;;;;;;25.10;16.45;;;3.10;1.00;;;;;;5036728;28;20420;-76
2022/03/10 08:25:55;;;;;;;21.98;14.15;;;2.90;1.00;;;;;;5028272;28;20065;-77
2022/03/10 08:28:26;;;;;;;27.58;15.02;;;2.90;1.00;;;;;;5035918;28;20060;-76
2022/03/10 08:30:53;;;;;;;23.45;16.60;;;3.10;1.00;;;;;;5005466;28;20049;-77
2022/03/10 08:33:21;;;;;;;26.52;16.88;;;3.20;1.00;;;;;;5017537;28;20053;-76
2022/03/10 08:35:48;;;;;;;25.75;14.82;;;3.40;99.90;;;;;;5020332;28;20057;-75
2022/03/10 08:38:16;;;;;;;27.52;16.80;;;3.50;99.90;;;;;;5020186;28;20408;-78
2022/03/10 08:40:45;;;;;;;31.33;20.05;;;3.50;99.90;;;;;;5038204;28;20047;-78
2022/03/10 08:43:13;;;;;;;31.48;20.30;;;3.60;99.90;;;;;;5020509;28;20493;-77
2022/03/10 08:45:41;;;;;;;26.83;16.70;;;3.70;99.90;;;;;;5037455;28;20053;-77
2022/03/10 08:48:09;;;;;;;18.55;13.05;;;3.70;99.90;;;;;;5019261;28;20068;-78
2022/03/10 08:50:38;;;;;;;18.92;13.60;;;3.50;99.90;;;;;;5038836;28;20050;-77
2022/03/10 08:53:06;;;;;;;32.58;19.90;;;3.50;99.90;;;;;;5019735;28;20041;-77
2022/03/10 08:55:33;;;;;;;36.22;20.30;;;3.60;1.00;;;;;;5037712;28;20053;-77
2022/03/10 08:58:02;;;;;;;30.95;19.42;;;3.70;1.00;;;;;;5021206;28;20044;-75
2022/03/10 09:00:30;;;;;;;24.67;16.48;;;3.70;1.00;;;;;;5020760;28;20052;-76
2022/03/10 09:02:58;;;;;;;27.30;17.45;;;3.80;1.00;;;;;;5024201;28;20041;-76
2022/03/10 09:05:25;;;;;;;20.65;13.55;;;3.90;1.00;;;;;;5025613;28;20041;-76
2022/03/10 09:07:53;;;;;;;21.95;13.82;;;3.90;1.00;;;;;;5034472;28;20045;-75
2022/03/10 09:10:20;;;;;;;22.25;14.60;;;4.00;1.00;;;;;;5009468;28;20157;-76
2022/03/10 09:12:48;;;;;;;23.17;14.35;;;4.20;1.00;;;;;;5034145;28;20048;-76
2022/03/10 09:15:17;;;;;;;19.95;13.30;;;4.40;1.00;;;;;;5019087;28;20099;-76
2022/03/10 09:17:45;;;;;;;20.35;13.48;;;4.60;1.00;;;;;;5036683;28;20551;-77
2022/03/10 09:20:13;;;;;;;19.30;12.55;;;4.80;1.00;;;;;;5005915;28;20049;-77
2022/03/10 09:22:41;;;;;;;19.58;12.05;;;4.80;99.90;;;;;;5031043;28;20057;-76
2022/03/10 09:25:09;;;;;;;18.52;11.15;;;4.70;99.90;;;;;;5014639;28;20046;-77
2022/03/10 09:27:38;;;;;;;15.63;11.32;;;4.70;99.90;;;;;;5016369;28;20053;-77
2022/03/10 09:30:08;;;;;;;19.02;12.20;;;4.80;99.90;;;;;;5012044;28;20046;-76
2022/03/10 09:32:37;;;;;;;15.68;10.93;;;4.80;99.90;;;;;;5016042;28;20145;-77
2022/03/10 09:35:05;;;;;;;20.48;12.15;;;4.80;99.90;;;;;;5016608;28;20048;-76
2022/03/10 09:37:33;;;;;;;19.45;12.27;;;4.80;99.90;;;;;;5006810;28;20038;-76
2022/03/10 09:40:00;;;;;;;19.45;12.35;;;4.90;99.90;;;;;;5025947;28;20042;-76
2022/03/10 09:42:30;;;;;;;24.52;13.85;;;4.70;99.90;;;;;;5033401;28;20065;-76
2022/03/10 09:44:59;;;;;;;17.85;11.68;;;4.70;99.90;;;;;;5035717;28;20050;-77
2022/03/10 09:47:32;;;;;;;16.92;10.45;;;4.60;99.90;;;;;;5030397;28;20049;-77
2022/03/10 09:50:04;;;;;;;14.07;9.82;;;4.60;72.10;;;;;;5015846;28;20045;-76
2022/03/10 09:52:32;;;;;;;14.43;9.25;;;4.50;48.50;;;;;;5017596;28;20052;-76
2022/03/10 09:55:00;;;;;;;14.95;10.48;;;4.50;30.50;;;;;;5023096;28;20042;-76
2022/03/10 09:57:28;;;;;;;16.80;10.55;;;4.60;33.00;;;;;;5035668;28;20064;-76
2022/03/10 10:00:00;;;;;;;11.90;8.57;;;4.60;25.20;;;;;;5024625;28;20420;-77
2022/03/10 10:02:29;;;;;;;12.57;8.93;;;4.50;1.00;;;;;;5016709;28;20118;-76
2022/03/10 10:05:01;;;;;;;12.30;8.18;;;4.60;1.00;;;;;;5016832;28;20512;-76
2022/03/10 10:07:29;;;;;;;12.60;8.38;;;4.60;18.70;;;;;;5017102;28;20061;-76
2022/03/10 10:09:58;;;;;;;14.32;8.50;;;4.80;1.00;;;;;;5020629;28;20045;-76
2022/03/10 10:12:27;;;;;;;13.60;8.68;;;5.00;1.00;;;;;;5018945;28;20045;-77
2022/03/10 10:14:58;;;;;;;13.77;8.68;;;5.20;1.00;;;;;;5020164;28;20069;-77
2022/03/10 10:17:30;;;;;;;14.35;9.10;;;5.10;1.00;;;;;;5017391;28;20050;-75
2022/03/10 10:20:01;;;;;;;13.80;8.98;;;5.20;1.00;;;;;;5003700;28;20482;-77
2022/03/10 10:22:30;;;;;;;13.75;8.70;;;5.20;1.00;;;;;;4996759;28;20056;-76
2022/03/10 10:25:02;;;;;;;17.38;9.88;;;5.10;1.00;;;;;;5012174;28;20547;-76
2022/03/10 10:27:32;;;;;;;14.07;9.02;;;5.00;1.00;;;;;;5017572;28;20092;-76
2022/03/10 10:30:01;;;;;;;14.32;8.75;;;4.90;1.00;;;;;;5035947;28;20063;-76
2022/03/10 10:32:33;;;;;;;12.05;7.50;;;5.20;1.00;;;;;;5034407;28;20132;-76
2022/03/10 10:35:08;;;;;;;15.95;8.45;;;5.30;1.00;;;;;;5035234;28;20075;-76
2022/03/10 10:37:36;;;;;;;15.37;8.60;;;5.40;1.00;;;;;;5036481;28;20057;-77
2022/03/10 10:40:05;;;;;;;14.27;8.88;;;5.60;1.00;;;;;;5035645;28;20295;-76
2022/03/10 10:42:34;;;;;;;13.48;8.80;;;5.90;1.00;;;;;;5043801;28;20069;-76
2022/03/10 10:45:22;;;;;;;16.70;8.82;;;6.00;1.00;;;;;;5048589;28;20041;-76
2022/03/10 10:48:12;;;;;;;12.68;8.20;;;5.80;1.00;;;;;;5026500;28;20596;-77
2022/03/10 10:50:45;;;;;;;11.88;8.43;;;5.90;1.00;;;;;;5037681;28;20554;-76
2022/03/10 10:53:32;;;;;;;13.00;8.25;;;6.10;1.00;;;;;;5165739;27;20383;-76
2022/03/10 10:56:00;;;;;;;13.23;8.68;;;6.10;1.00;;;;;;5134161;28;20047;-78
2022/03/10 10:58:28;;;;;;;14.55;9.18;;;6.00;1.00;;;;;;5114971;28;20047;-77
2022/03/10 11:00:55;;;;;;;12.38;8.45;;;6.10;1.00;;;;;;5114704;28;20070;-77
2022/03/10 11:03:24;;;;;;;11.85;7.72;;;6.10;1.00;;;;;;5118282;28;20058;-77
2022/03/10 11:05:52;;;;;;;11.55;7.68;;;5.90;1.00;;;;;;5132804;28;20047;-76
2022/03/10 11:08:20;;;;;;;15.18;8.45;;;5.70;1.00;;;;;;5134163;28;20499;-76
2022/03/10 11:10:50;;;;;;;14.82;9.13;;;5.40;1.00;;;;;;5139860;28;20063;-76
2022/03/10 11:13:18;;;;;;;13.48;8.13;;;5.40;1.00;;;;;;5121214;28;20047;-76
2022/03/10 11:15:46;;;;;;;11.85;7.20;;;5.60;1.00;;;;;;5133977;28;20040;-76
2022/03/10 11:18:15;;;;;;;12.50;8.23;;;6.10;1.00;;;;;;5133344;28;20043;-77
2022/03/10 11:20:47;;;;;;;13.88;8.35;;;6.30;1.00;;;;;;5114650;28;20065;-76
2022/03/10 11:23:21;;;;;;;12.43;7.63;;;6.50;1.00;;;;;;5133338;28;20031;-76
2022/03/10 11:25:56;;;;;;;13.10;7.38;;;6.50;1.00;;;;;;5088943;22;20563;-76
2022/03/10 11:28:27;;;;;;;16.48;9.07;;;6.50;1.00;;;;;;5032729;28;20053;-77
2022/03/10 11:30:57;;;;;;;13.27;8.88;;;6.30;1.00;;;;;;5034332;28;20063;-76
2022/03/10 11:33:31;;;;;;;13.15;7.50;;;6.20;1.00;;;;;;5050251;28;20056;-76
2022/03/10 11:35:59;;;;;;;12.07;7.97;;;6.00;1.00;;;;;;5053482;28;20045;-77
2022/03/10 11:38:49;;;;;;;16.35;7.80;;;6.30;1.00;;;;;;5048360;28;20041;-77
2022/03/10 11:41:19;;;;;;;13.70;7.63;;;6.60;1.00;;;;;;5046970;28;20044;-77
2022/03/10 11:43:58;;;;;;;16.70;7.80;;;6.70;1.00;;;;;;5036506;28;20518;-76
2022/03/10 11:46:28;;;;;;;15.23;7.53;;;6.80;1.00;;;;;;5050648;28;20045;-77
2022/03/10 11:49:12;;;;;;;11.65;7.55;;;6.90;1.00;;;;;;5050774;28;20047;-76
2022/03/10 11:51:52;;;;;;;16.48;9.30;;;6.80;1.00;;;;;;5043628;28;20049;-76
2022/03/10 11:54:25;;;;;;;19.25;8.15;;;6.90;1.00;;;;;;5048849;28;20478;-77
2022/03/10 11:57:05;;;;;;;19.95;8.48;;;7.00;1.00;;;;;;5050108;28;20525;-77
2022/03/10 11:59:48;;;;;;;21.52;10.10;;;7.20;1.00;;;;;;5032121;28;20045;-77
2022/03/10 12:02:42;;;;;;;16.83;8.20;;;7.20;1.00;;;;;;5047092;28;20091;-77
2022/03/10 12:05:13;;;;;;;10.52;6.75;;;7.10;1.00;;;;;;5035187;28;20220;-76
2022/03/10 12:07:44;;;;;;;23.33;8.18;;;7.00;1.00;;;;;;5030738;28;20045;-77
2022/03/10 12:10:15;;;;;;;12.30;7.85;;;6.90;1.00;;;;;;5015590;28;20077;-77
2022/03/10 12:12:46;;;;;;;16.50;6.65;;;6.70;1.00;;;;;;5032967;28;20049;-77
2022/03/10 12:15:41;;;;;;;10.55;6.68;;;7.00;1.00;;;;;;5035324;28;20097;-77
2022/03/10 12:18:24;;;;;;;13.68;7.32;;;7.20;1.00;;;;;;5036602;28;20500;-76
2022/03/10 12:20:57;;;;;;;12.30;7.20;;;7.40;1.00;;;;;;5035814;28;20075;-77
2022/03/10 12:23:31;;;;;;;21.23;7.00;;;7.40;1.00;;;;;;5035562;28;20073;-76
2022/03/10 12:26:06;;;;;;;11.35;8.05;;;7.30;1.00;;;;;;5035747;28;20439;-76
2022/03/10 12:28:37;;;;;;;16.25;8.05;;;7.20;1.00;;;;;;5038183;28;20079;-77
2022/03/10 12:31:08;;;;;;;12.68;8.07;;;7.60;1.00;;;;;;5036921;28;20045;-76
2022/03/10 12:33:44;;;;;;;13.45;9.27;;;7.50;1.00;;;;;;5038424;28;20491;-76
2022/03/10 12:36:13;;;;;;;13.20;7.63;;;7.60;1.00;;;;;;5039002;28;20235;-76
2022/03/10 12:38:44;;;;;;;16.48;8.48;;;7.80;1.00;;;;;;5036050;28;20408;-77
2022/03/10 12:41:11;;;;;;;13.77;7.88;;;7.90;1.00;;;;;;5034707;28;20064;-77
2022/03/10 12:43:41;;;;;;;17.17;8.30;;;7.80;1.00;;;;;;5033957;28;20041;-77
2022/03/10 12:46:09;;;;;;;12.35;8.02;;;7.50;1.00;;;;;;5034255;28;20053;-76
2022/03/10 12:48:51;;;;;;;21.40;8.05;;;7.40;1.00;;;;;;5035388;28;20043;-76
2022/03/10 12:51:23;;;;;;;15.35;8.15;;;7.20;1.00;;;;;;5035534;28;20039;-76
2022/03/10 12:53:52;;;;;;;17.67;7.97;;;7.20;1.00;;;;;;5032862;28;20045;-75